Terminal Aerodrome Forecast
Issued by NWS Caribou, ME

Home | Current Version | Previous Version | Text Only | Print | Product List | Glossary On
Versions: 1 2 3 4 5 6 7 8 9 10 11 12 13 14 15 16 17 18 19 20 21
039
FTUS41 KCAR 080520
TAFCAR
TAF
KCAR 080520Z 0806/0906 36005KT P6SM SKC
     FM082200 04010KT P6SM BKN120
     FM090500 36012KT 5SM -SN BR OVC025=

USA.gov is the U.S. government's official web portal to all federal, state and local government web resources and services.